Time;durP1;ratioP1;P1;durP2;ratioP2;P2;SDS_P1;SDS_P2;PMS_P1;PMS_P2;Temp;Humidity;BMP_temperature;BMP_pressure;BME280_temperature;BME280_humidity;BME280_pressure;Samples;Min_cycle;Max_cycle;Signal;HPM_P1;HPM_P2
2022/06/07 00:01:20;;;;;;;;;;;22.50;53.60;;;;;;5055326;28;19968;-76
2022/06/07 00:03:46;;;;;;;;;;;22.50;53.90;;;;;;5055089;28;19909;-76
2022/06/07 00:06:11;;;;;;;;;;;22.50;53.90;;;;;;5054863;28;19916;-76
2022/06/07 00:08:37;;;;;;;;;;;22.40;53.60;;;;;;5054201;28;19920;-77
2022/06/07 00:11:02;;;;;;;;;;;22.40;53.60;;;;;;5054766;28;20372;-76
2022/06/07 00:13:28;;;;;;;;;;;22.40;53.80;;;;;;5054616;28;19916;-76
2022/06/07 00:15:53;;;;;;;;;;;22.40;53.90;;;;;;5054437;28;19916;-76
2022/06/07 00:18:19;;;;;;;;;;;22.30;53.80;;;;;;5054645;28;19909;-77
2022/06/07 00:20:45;;;;;;;;;;;22.40;54.00;;;;;;5036219;28;19962;-77
2022/06/07 00:23:12;;;;;;;;;;;22.40;54.10;;;;;;5037051;28;19908;-77
2022/06/07 00:25:37;;;;;;;;;;;22.30;54.20;;;;;;5037066;28;20287;-77
2022/06/07 00:28:03;;;;;;;;;;;22.30;54.60;;;;;;5054558;28;19909;-76
2022/06/07 00:30:29;;;;;;;;;;;22.30;54.20;;;;;;5053661;28;19909;-76
2022/06/07 00:32:54;;;;;;;;;;;22.30;54.20;;;;;;5054491;28;19909;-76
2022/06/07 00:35:21;;;;;;;;;;;22.30;54.00;;;;;;5054312;28;19916;-77
2022/06/07 00:37:47;;;;;;;;;;;22.30;54.00;;;;;;5054388;28;19909;-77
2022/06/07 00:40:13;;;;;;;;;;;22.20;54.00;;;;;;5053576;28;19909;-77
2022/06/07 00:42:38;;;;;;;;;;;22.20;53.80;;;;;;5054333;28;19995;-77
2022/06/07 00:45:04;;;;;;;;;;;22.20;54.00;;;;;;5054030;28;20000;-76
2022/06/07 00:47:30;;;;;;;;;;;22.20;54.20;;;;;;5054283;28;19936;-77
2022/06/07 00:49:58;;;;;;;;;;;22.20;54.10;;;;;;5035514;28;19963;-77
2022/06/07 00:52:25;;;;;;;;;;;22.10;54.00;;;;;;5054187;28;20372;-77
2022/06/07 00:54:50;;;;;;;;;;;22.10;54.10;;;;;;5054084;28;19916;-77
2022/06/07 00:57:16;;;;;;;;;;;22.10;54.00;;;;;;5054088;28;19909;-77
2022/06/07 00:59:42;;;;;;;;;;;22.10;54.10;;;;;;5053331;28;19909;-77
2022/06/07 01:02:08;;;;;;;;;;;22.10;54.30;;;;;;5036171;28;19963;-77
2022/06/07 01:04:33;;;;;;;;;;;22.10;54.40;;;;;;5053593;28;19920;-77
2022/06/07 01:12:27;;;;;;;;;;;22.00;54.50;;;;;;5053409;28;20038;-77
2022/06/07 01:14:53;;;;;;;;;;;22.00;54.50;;;;;;5053977;28;20388;-77
2022/06/07 01:17:19;;;;;;;;;;;22.00;54.60;;;;;;5036178;28;19916;-77
2022/06/07 01:19:45;;;;;;;;;;;22.00;54.80;;;;;;5053155;28;19915;-77
2022/06/07 01:22:11;;;;;;;;;;;22.00;54.90;;;;;;5053767;28;20430;-77
2022/06/07 01:24:36;;;;;;;;;;;21.90;54.80;;;;;;5053498;28;19931;-77
2022/06/07 01:27:02;;;;;;;;;;;21.90;55.00;;;;;;5056933;28;19931;-77
2022/06/07 01:29:28;;;;;;;;;;;21.90;54.80;;;;;;5064210;28;19916;-77
2022/06/07 01:31:53;;;;;;;;;;;21.90;55.20;;;;;;5066501;28;19909;-77
2022/06/07 01:34:19;;;;;;;;;;;21.80;55.20;;;;;;5065538;28;19909;-77
2022/06/07 01:36:44;;;;;;;;;;;21.80;55.30;;;;;;5037173;28;19992;-77
2022/06/07 01:41:54;;;;;;;;;;;21.90;55.00;;;;;;5053598;28;20014;-76
2022/06/07 01:44:23;;;;;;;;;;;21.80;55.30;;;;;;5053291;28;19931;-77
2022/06/07 01:46:49;;;;;;;;;;;21.80;55.40;;;;;;5035367;28;19955;-77
2022/06/07 01:49:14;;;;;;;;;;;21.80;55.30;;;;;;5034530;28;19913;-77
2022/06/07 01:51:40;;;;;;;;;;;21.80;55.10;;;;;;5053337;28;19991;-77
2022/06/07 01:54:06;;;;;;;;;;;21.80;55.30;;;;;;5053089;28;19904;-77
2022/06/07 01:56:31;;;;;;;;;;;21.80;55.20;;;;;;5053065;28;19947;-77
2022/06/07 01:58:57;;;;;;;;;;;21.70;54.90;;;;;;5052418;28;19959;-77
2022/06/07 02:01:23;;;;;;;;;;;21.80;55.60;;;;;;5052993;28;20391;-77
2022/06/07 02:03:48;;;;;;;;;;;21.70;55.80;;;;;;5053446;28;19912;-77
2022/06/07 02:06:14;;;;;;;;;;;21.80;55.70;;;;;;5052974;28;20270;-77
2022/06/07 02:08:41;;;;;;;;;;;21.70;55.70;;;;;;5053746;28;19956;-77
2022/06/07 02:11:11;;;;;;;;;;;21.70;55.50;;;;;;5035892;28;19988;-77
2022/06/07 02:13:36;;;;;;;;;;;21.70;55.50;;;;;;5053156;28;19915;-77
2022/06/07 02:16:03;;;;;;;;;;;21.70;55.40;;;;;;5035595;28;19909;-77
2022/06/07 02:18:28;;;;;;;;;;;21.70;55.60;;;;;;5052561;28;19908;-77
2022/06/07 02:20:56;;;;;;;;;;;21.70;55.60;;;;;;5052936;28;20016;-77
2022/06/07 02:23:22;;;;;;;;;;;21.60;55.70;;;;;;5053114;28;19909;-78
2022/06/07 02:25:49;;;;;;;;;;;21.60;55.90;;;;;;5053209;28;19966;-76
2022/06/07 02:28:15;;;;;;;;;;;21.60;56.00;;;;;;5053271;28;19916;-76
2022/06/07 02:30:41;;;;;;;;;;;21.60;56.00;;;;;;5052397;28;20388;-76
2022/06/07 02:33:08;;;;;;;;;;;21.60;55.90;;;;;;5053141;28;19913;-76
2022/06/07 02:35:34;;;;;;;;;;;21.60;56.00;;;;;;5053030;28;20368;-76
2022/06/07 02:37:59;;;;;;;;;;;21.60;56.20;;;;;;5052999;28;19916;-77
2022/06/07 02:40:25;;;;;;;;;;;21.60;56.00;;;;;;5052576;28;19909;-76
2022/06/07 02:42:50;;;;;;;;;;;21.60;56.20;;;;;;5053175;28;19913;-76
2022/06/07 02:45:16;;;;;;;;;;;21.60;56.20;;;;;;5052622;28;20575;-77
2022/06/07 02:47:41;;;;;;;;;;;21.60;56.10;;;;;;5053288;28;19909;-76
2022/06/07 02:50:07;;;;;;;;;;;21.50;56.10;;;;;;5052490;28;19916;-76
2022/06/07 02:52:32;;;;;;;;;;;21.50;56.10;;;;;;5053033;28;20395;-76
2022/06/07 02:54:58;;;;;;;;;;;21.50;56.10;;;;;;5052729;28;19909;-76
2022/06/07 02:57:25;;;;;;;;;;;21.50;56.00;;;;;;5052853;28;20066;-76
2022/06/07 02:59:51;;;;;;;;;;;21.50;56.10;;;;;;5033580;28;20396;-77
2022/06/07 03:02:17;;;;;;;;;;;21.50;56.20;;;;;;5034176;28;19919;-77
2022/06/07 03:04:42;;;;;;;;;;;21.50;56.10;;;;;;5051580;28;19940;-77
2022/06/07 03:07:08;;;;;;;;;;;21.50;56.30;;;;;;5034412;28;19915;-77
2022/06/07 03:09:33;;;;;;;;;;;21.40;56.10;;;;;;5051411;28;19913;-76
2022/06/07 03:11:59;;;;;;;;;;;21.40;56.30;;;;;;5052166;28;19908;-76
2022/06/07 03:14:24;;;;;;;;;;;21.40;56.20;;;;;;5051903;28;19936;-77
2022/06/07 03:16:50;;;;;;;;;;;21.40;56.30;;;;;;5051798;28;19996;-77
2022/06/07 03:19:15;;;;;;;;;;;21.40;56.40;;;;;;5033161;28;19951;-78
2022/06/07 03:21:41;;;;;;;;;;;21.40;56.30;;;;;;5051852;28;20280;-77
2022/06/07 03:24:07;;;;;;;;;;;21.40;56.30;;;;;;5051581;28;19913;-77
2022/06/07 03:26:33;;;;;;;;;;;21.40;56.30;;;;;;5051936;28;19908;-77
2022/06/07 03:28:58;;;;;;;;;;;21.40;56.30;;;;;;5051188;28;19954;-78
2022/06/07 03:31:24;;;;;;;;;;;21.40;56.50;;;;;;5052096;28;19909;-77
2022/06/07 03:33:50;;;;;;;;;;;21.40;56.30;;;;;;5052474;28;19908;-77
2022/06/07 03:36:17;;;;;;;;;;;21.40;56.50;;;;;;5056278;28;20194;-77
2022/06/07 03:38:43;;;;;;;;;;;21.40;56.50;;;;;;5039613;28;19954;-78
2022/06/07 03:41:13;;;;;;;;;;;21.30;56.40;;;;;;5039155;28;20006;-78
2022/06/07 03:43:39;;;;;;;;;;;21.30;56.40;;;;;;5057804;28;19909;-77
2022/06/07 03:46:12;;;;;;;;;;;21.30;56.50;;;;;;5057400;28;19970;-78
2022/06/07 03:48:38;;;;;;;;;;;21.30;56.40;;;;;;5039961;28;19909;-78
2022/06/07 03:51:03;;;;;;;;;;;21.30;56.70;;;;;;5057447;28;19916;-77
2022/06/07 03:53:29;;;;;;;;;;;21.30;56.60;;;;;;5056980;28;20285;-77
2022/06/07 03:55:54;;;;;;;;;;;21.30;56.50;;;;;;5057197;28;19931;-77
2022/06/07 03:58:20;;;;;;;;;;;21.30;56.60;;;;;;5038462;28;19909;-79
2022/06/07 04:00:45;;;;;;;;;;;21.30;56.80;;;;;;5056194;28;19909;-79
2022/06/07 04:03:12;;;;;;;;;;;21.30;57.10;;;;;;5056672;28;19992;-79
2022/06/07 04:05:38;;;;;;;;;;;21.30;56.90;;;;;;5056312;28;19924;-79
2022/06/07 04:08:13;;;;;;;;;;;21.30;56.90;;;;;;5056623;28;19916;-78
2022/06/07 04:10:58;;;;;;;;;;;21.30;56.80;;;;;;5055639;28;19909;-78
2022/06/07 04:13:25;;;;;;;;;;;21.30;57.10;;;;;;5055902;28;20015;-78
2022/06/07 04:15:51;;;;;;;;;;;21.30;57.10;;;;;;5054590;28;19965;-78
2022/06/07 04:18:17;;;;;;;;;;;21.30;57.10;;;;;;5036173;28;19956;-78
2022/06/07 04:20:43;;;;;;;;;;;21.30;57.10;;;;;;5045000;28;19952;-78
2022/06/07 04:23:12;;;;;;;;;;;21.30;57.30;;;;;;5031253;28;19909;-78
2022/06/07 04:25:39;;;;;;;;;;;21.30;57.50;;;;;;5042174;28;20011;-77
2022/06/07 04:28:05;;;;;;;;;;;21.30;56.90;;;;;;5035047;28;20372;-77
2022/06/07 04:30:30;;;;;;;;;;;21.30;57.30;;;;;;5033897;28;19917;-77
2022/06/07 04:32:56;;;;;;;;;;;21.30;57.40;;;;;;5036351;28;20302;-77
2022/06/07 04:35:21;;;;;;;;;;;21.30;57.70;;;;;;5054448;28;20360;-77
2022/06/07 04:37:48;;;;;;;;;;;21.30;57.80;;;;;;5054336;28;19913;-77
2022/06/07 04:40:14;;;;;;;;;;;21.30;57.80;;;;;;5053452;28;19970;-77
2022/06/07 04:42:41;;;;;;;;;;;21.30;57.80;;;;;;5054403;28;19909;-77
2022/06/07 04:45:09;;;;;;;;;;;21.30;58.60;;;;;;5053946;28;19916;-77
2022/06/07 04:47:36;;;;;;;;;;;21.20;58.70;;;;;;5036357;28;19909;-77
2022/06/07 04:50:02;;;;;;;;;;;21.30;58.70;;;;;;5035147;28;19909;-77
2022/06/07 04:52:28;;;;;;;;;;;21.30;58.10;;;;;;5035931;28;19909;-77
2022/06/07 04:54:53;;;;;;;;;;;21.30;58.80;;;;;;5035497;28;19932;-77
2022/06/07 04:57:19;;;;;;;;;;;21.30;58.40;;;;;;5053470;28;19909;-77
2022/06/07 04:59:44;;;;;;;;;;;21.30;58.40;;;;;;5054720;28;19928;-79
2022/06/07 05:02:10;;;;;;;;;;;20.70;58.90;;;;;;5056057;28;19909;-78
2022/06/07 05:04:35;;;;;;;;;;;20.00;60.70;;;;;;5038065;28;19917;-78
2022/06/07 05:07:01;;;;;;;;;;;19.30;64.00;;;;;;5038867;28;19913;-78
2022/06/07 05:09:27;;;;;;;;;;;19.00;64.90;;;;;;5056040;28;19933;-78
2022/06/07 05:11:53;;;;;;;;;;;18.90;65.50;;;;;;5036998;28;19908;-78
2022/06/07 05:14:19;;;;;;;;;;;18.60;67.20;;;;;;5036890;28;20368;-78
2022/06/07 05:16:44;;;;;;;;;;;18.60;67.90;;;;;;5037452;28;19908;-79
2022/06/07 05:19:11;;;;;;;;;;;18.50;67.60;;;;;;5056670;28;19916;-78
2022/06/07 05:21:37;;;;;;;;;;;18.70;67.20;;;;;;5055425;28;20381;-78
2022/06/07 05:24:05;;;;;;;;;;;18.60;67.10;;;;;;5055083;28;19916;-78
2022/06/07 05:26:33;;;;;;;;;;;18.90;66.30;;;;;;5053477;28;19943;-78
2022/06/07 05:28:59;;;;;;;;;;;18.90;66.00;;;;;;5053782;28;19983;-79
2022/06/07 05:31:25;;;;;;;;;;;18.40;68.20;;;;;;5054569;28;19955;-78
2022/06/07 05:33:50;;;;;;;;;;;18.60;68.00;;;;;;5035786;28;19984;-79
2022/06/07 05:36:16;;;;;;;;;;;18.60;67.90;;;;;;5054879;28;19916;-79
2022/06/07 05:38:42;;;;;;;;;;;18.20;69.90;;;;;;5054516;28;19909;-79
2022/06/07 05:41:11;;;;;;;;;;;18.30;70.00;;;;;;5037169;28;19947;-79
2022/06/07 05:43:37;;;;;;;;;;;18.20;70.20;;;;;;5037055;28;19972;-79
2022/06/07 05:46:02;;;;;;;;;;;18.50;68.60;;;;;;5052777;28;20000;-79
2022/06/07 05:48:33;;;;;;;;;;;18.40;69.10;;;;;;5052097;28;19909;-79
2022/06/07 05:50:58;;;;;;;;;;;18.10;70.60;;;;;;5046536;28;19913;-79
2022/06/07 05:53:24;;;;;;;;;;;18.20;69.80;;;;;;5037618;28;19909;-79
2022/06/07 05:55:49;;;;;;;;;;;18.10;70.60;;;;;;5041019;28;19909;-79
2022/06/07 05:58:14;;;;;;;;;;;18.00;70.70;;;;;;5036337;28;19932;-79
2022/06/07 06:00:40;;;;;;;;;;;18.00;70.70;;;;;;5038074;28;19944;-79
2022/06/07 06:03:06;;;;;;;;;;;18.10;70.60;;;;;;5035900;28;19915;-79
2022/06/07 06:05:33;;;;;;;;;;;18.10;70.50;;;;;;5041640;28;19992;-79
2022/06/07 06:10:43;;;;;;;;;;;18.20;70.40;;;;;;5071300;28;19916;-79
2022/06/07 06:13:08;;;;;;;;;;;18.20;70.70;;;;;;5041168;28;20290;-79
2022/06/07 06:15:34;;;;;;;;;;;18.10;72.00;;;;;;5035010;28;19959;-79
2022/06/07 06:18:00;;;;;;;;;;;18.10;71.20;;;;;;5034568;28;19975;-79
2022/06/07 06:20:26;;;;;;;;;;;18.10;71.00;;;;;;5051803;28;20026;-79
2022/06/07 06:22:51;;;;;;;;;;;18.20;71.50;;;;;;5052688;28;20399;-78
2022/06/07 06:25:17;;;;;;;;;;;18.50;70.20;;;;;;5050623;28;19916;-78
2022/06/07 06:27:43;;;;;;;;;;;18.50;71.70;;;;;;5045669;28;19999;-78
2022/06/07 06:30:10;;;;;;;;;;;19.10;68.80;;;;;;5024967;28;19959;-78
2022/06/07 06:32:36;;;;;;;;;;;19.20;67.20;;;;;;5025483;28;20325;-77
2022/06/07 06:35:02;;;;;;;;;;;19.20;66.90;;;;;;5049266;28;19909;-78
2022/06/07 06:37:27;;;;;;;;;;;19.00;67.90;;;;;;5039898;28;20316;-79
2022/06/07 06:39:53;;;;;;;;;;;19.00;67.30;;;;;;5050906;28;20003;-79
2022/06/07 06:42:19;;;;;;;;;;;19.10;67.90;;;;;;5034389;28;19909;-82
2022/06/07 06:44:44;;;;;;;;;;;19.30;67.80;;;;;;5051998;28;19971;-80
2022/06/07 06:47:11;;;;;;;;;;;19.30;67.10;;;;;;5052828;28;19999;-80
2022/06/07 06:49:37;;;;;;;;;;;20.20;64.70;;;;;;5035343;28;19917;-81
2022/06/07 06:52:03;;;;;;;;;;;20.70;63.50;;;;;;5054243;28;19924;-81
2022/06/07 06:54:30;;;;;;;;;;;21.00;61.20;;;;;;5023581;28;19916;-81
2022/06/07 06:56:56;;;;;;;;;;;20.80;62.00;;;;;;5015419;28;19917;-81
2022/06/07 06:59:21;;;;;;;;;;;20.40;64.10;;;;;;5013779;28;20361;-80
2022/06/07 07:01:47;;;;;;;;;;;20.40;62.70;;;;;;5032192;28;19959;-79
2022/06/07 07:04:14;;;;;;;;;;;20.40;62.60;;;;;;5040060;28;19928;-80
2022/06/07 07:06:40;;;;;;;;;;;20.10;64.00;;;;;;5034175;28;19909;-81
2022/06/07 07:09:07;;;;;;;;;;;20.50;61.80;;;;;;5051395;28;20335;-79
2022/06/07 07:11:35;;;;;;;;;;;20.30;62.40;;;;;;5034670;28;20287;-79
2022/06/07 07:14:01;;;;;;;;;;;20.50;61.90;;;;;;5050135;28;20442;-79
2022/06/07 07:16:29;;;;;;;;;;;20.60;62.50;;;;;;5051847;28;19924;-79
2022/06/07 07:18:54;;;;;;;;;;;20.80;61.20;;;;;;5045374;28;19917;-79
2022/06/07 07:21:22;;;;;;;;;;;20.70;61.20;;;;;;5036209;28;19924;-79
2022/06/07 07:23:47;;;;;;;;;;;20.60;62.70;;;;;;5033503;28;20412;-80
2022/06/07 07:26:20;;;;;;;;;;;22.10;60.00;;;;;;5045571;28;19952;-80
2022/06/07 07:28:46;;;;;;;;;;;22.50;64.50;;;;;;5042426;28;19917;-79
2022/06/07 07:31:13;;;;;;;;;;;23.00;64.50;;;;;;5045022;28;19920;-80
2022/06/07 07:33:39;;;;;;;;;;;23.40;61.80;;;;;;5052735;28;19944;-80
2022/06/07 07:36:05;;;;;;;;;;;23.50;61.70;;;;;;5032044;28;19948;-80
2022/06/07 07:38:31;;;;;;;;;;;23.20;60.50;;;;;;5051411;28;19960;-80
2022/06/07 07:40:57;;;;;;;;;;;22.70;61.80;;;;;;5047365;28;19920;-79
2022/06/07 07:43:22;;;;;;;;;;;22.20;63.90;;;;;;5053038;28;19917;-79
2022/06/07 07:45:54;;;;;;;;;;;21.80;66.20;;;;;;5034105;28;19917;-79
2022/06/07 07:48:21;;;;;;;;;;;21.60;66.40;;;;;;5034037;28;20015;-81
2022/06/07 07:50:47;;;;;;;;;;;21.60;66.60;;;;;;5027735;28;19919;-79
2022/06/07 07:53:13;;;;;;;;;;;22.80;62.30;;;;;;5045626;28;19943;-79
2022/06/07 07:55:46;;;;;;;;;;;23.30;60.50;;;;;;5027985;28;19913;-79
2022/06/07 07:58:11;;;;;;;;;;;23.20;59.40;;;;;;5050145;28;19942;-79
2022/06/07 08:00:40;;;;;;;;;;;23.10;59.90;;;;;;5048202;28;19924;-79
2022/06/07 08:03:05;;;;;;;;;;;23.10;60.90;;;;;;5047914;28;19913;-79
2022/06/07 08:05:32;;;;;;;;;;;23.50;59.60;;;;;;5029797;28;20374;-79
2022/06/07 08:07:58;;;;;;;;;;;23.30;59.10;;;;;;5026541;28;20365;-79
2022/06/07 08:10:24;;;;;;;;;;;23.00;60.00;;;;;;5042873;28;19996;-80
2022/06/07 08:12:49;;;;;;;;;;;22.70;59.80;;;;;;5051629;28;19954;-79
2022/06/07 08:15:15;;;;;;;;;;;22.70;60.80;;;;;;5045912;28;19917;-79
2022/06/07 08:17:42;;;;;;;;;;;22.80;61.10;;;;;;5044919;28;20384;-80
2022/06/07 08:20:07;;;;;;;;;;;23.40;62.20;;;;;;5033677;28;19924;-82
2022/06/07 08:22:33;;;;;;;;;;;23.60;58.20;;;;;;5038594;28;19909;-82
2022/06/07 08:24:58;;;;;;;;;;;24.40;57.50;;;;;;5046916;28;20297;-85
2022/06/07 08:27:24;;;;;;;;;;;25.20;55.70;;;;;;5054466;28;19924;-85
2022/06/07 08:29:49;;;;;;;;;;;25.10;54.90;;;;;;5033003;28;19921;-84
2022/06/07 08:32:15;;;;;;;;;;;24.50;55.60;;;;;;5027008;28;19913;-85
2022/06/07 08:37:34;;;;;;;;;;;23.60;57.10;;;;;;5051708;28;19967;-83
2022/06/07 08:42:37;;;;;;;;;;;23.00;57.80;;;;;;5052328;22;19936;-69
2022/06/07 08:45:22;;;;;;;;;;;22.70;58.00;;;;;;5087511;28;20007;-72
2022/06/07 08:48:08;;;;;;;;;;;22.60;59.00;;;;;;5083415;28;19991;-70
2022/06/07 08:50:36;;;;;;;;;;;22.50;59.30;;;;;;5082060;28;20003;-72
2022/06/07 08:53:20;;;;;;;;;;;22.50;59.10;;;;;;5092930;28;20278;-70
2022/06/07 08:55:47;;;;;;;;;;;22.40;59.40;;;;;;5093350;28;19912;-72
2022/06/07 08:58:13;;;;;;;;;;;22.30;59.50;;;;;;5088088;28;19916;-72
2022/06/07 09:00:49;;;;;;;;;;;22.20;60.50;;;;;;5090924;28;19919;-72
2022/06/07 09:03:29;;;;;;;;;;;22.30;60.20;;;;;;5089979;28;19912;-72
2022/06/07 09:05:57;;;;;;;;;;;22.40;60.30;;;;;;5094358;28;19916;-72
2022/06/07 09:08:32;;;;;;;;;;;23.00;58.70;;;;;;5094297;28;20378;-71
2022/06/07 09:13:46;;;;;;;;;;;24.10;56.50;;;;;;5096074;28;20272;-72
2022/06/07 09:16:12;;;;;;;;;;;24.20;56.60;;;;;;5089220;28;19916;-70
2022/06/07 09:18:39;;;;;;;;;;;24.40;56.50;;;;;;5085044;28;19923;-71
2022/06/07 09:21:09;;;;;;;;;;;24.50;55.00;;;;;;5089716;28;19959;-70
2022/06/07 09:23:44;;;;;;;;;;;24.30;54.70;;;;;;5076054;28;19939;-69
2022/06/07 09:26:22;;;;;;;;;;;24.20;54.70;;;;;;5083004;28;20257;-69
2022/06/07 09:28:48;;;;;;;;;;;24.50;55.00;;;;;;5091804;28;19912;-70
2022/06/07 09:31:16;;;;;;;;;;;24.70;54.10;;;;;;5092319;28;19912;-69
2022/06/07 09:34:02;;;;;;;;;;;24.90;53.70;;;;;;5091375;28;20264;-72
2022/06/07 09:36:29;;;;;;;;;;;25.00;53.70;;;;;;5093870;28;19909;-70
2022/06/07 09:38:56;;;;;;;;;;;24.70;53.60;;;;;;5085632;28;19974;-71
2022/06/07 09:41:37;;;;;;;;;;;24.40;54.20;;;;;;5073430;28;19970;-69
2022/06/07 09:44:22;;;;;;;;;;;24.10;53.90;;;;;;5073549;28;19919;-70
2022/06/07 09:46:49;;;;;;;;;;;23.90;53.40;;;;;;5073473;28;20288;-71
2022/06/07 09:49:25;;;;;;;;;;;23.70;54.50;;;;;;5079401;28;19914;-71
2022/06/07 09:51:51;;;;;;;;;;;23.60;55.20;;;;;;5095167;28;19930;-72
2022/06/07 09:54:19;;;;;;;;;;;23.40;55.30;;;;;;5093392;28;20511;-70
2022/06/07 09:56:44;;;;;;;;;;;23.50;55.50;;;;;;5092684;28;19956;-71
2022/06/07 09:59:19;;;;;;;;;;;23.50;55.50;;;;;;5082365;28;19935;-73
2022/06/07 10:01:49;;;;;;;;;;;23.40;55.70;;;;;;5093499;28;19934;-70
2022/06/07 10:04:30;;;;;;;;;;;23.60;56.30;;;;;;5079987;28;19988;-70
2022/06/07 10:06:57;;;;;;;;;;;23.60;55.70;;;;;;5073064;28;19912;-70
2022/06/07 10:09:43;;;;;;;;;;;23.60;55.80;;;;;;5077016;28;19916;-69
2022/06/07 10:12:21;;;;;;;;;;;23.50;55.30;;;;;;5093091;28;20321;-70
2022/06/07 10:15:05;;;;;;;;;;;23.40;56.40;;;;;;5091583;28;20001;-71
2022/06/07 10:17:36;;;;;;;;;;;23.40;56.00;;;;;;5092981;28;19909;-73
2022/06/07 10:20:22;;;;;;;;;;;23.10;55.60;;;;;;5092623;28;19912;-70
2022/06/07 10:22:52;;;;;;;;;;;23.10;55.30;;;;;;5093098;28;19909;-69
2022/06/07 10:25:21;;;;;;;;;;;23.20;56.70;;;;;;5092773;28;20049;-70
2022/06/07 10:28:05;;;;;;;;;;;23.40;56.20;;;;;;5092858;28;20260;-72
2022/06/07 10:30:41;;;;;;;;;;;23.50;55.50;;;;;;5092614;28;19908;-72
2022/06/07 10:33:26;;;;;;;;;;;23.70;55.10;;;;;;5094253;28;19958;-72
2022/06/07 10:35:55;;;;;;;;;;;23.70;55.30;;;;;;5092780;28;19912;-72
2022/06/07 10:38:30;;;;;;;;;;;23.70;55.80;;;;;;5084019;28;19919;-70
2022/06/07 10:41:07;;;;;;;;;;;23.70;55.40;;;;;;5072379;28;19921;-72
2022/06/07 10:43:36;;;;;;;;;;;23.70;55.50;;;;;;5072240;28;19920;-70
2022/06/07 10:46:01;;;;;;;;;;;23.80;55.00;;;;;;5087731;28;19955;-73
2022/06/07 10:48:32;;;;;;;;;;;23.90;54.90;;;;;;5092207;28;19915;-73
2022/06/07 10:51:07;;;;;;;;;;;23.80;54.00;;;;;;5092644;28;19947;-73
2022/06/07 10:53:35;;;;;;;;;;;23.80;54.40;;;;;;5092588;28;19908;-71
2022/06/07 10:56:06;;;;;;;;;;;23.70;53.80;;;;;;5090181;28;20010;-71
2022/06/07 10:58:37;;;;;;;;;;;23.60;54.60;;;;;;5091770;28;19919;-74
2022/06/07 11:01:06;;;;;;;;;;;23.50;55.30;;;;;;5090450;28;19934;-71
2022/06/07 11:03:39;;;;;;;;;;;23.40;55.30;;;;;;5092063;28;19919;-72
2022/06/07 11:11:41;;;;;;;;;;;23.30;55.50;;;;;;5083482;28;19954;-72
2022/06/07 11:14:25;;;;;;;;;;;23.20;55.50;;;;;;5092179;28;19912;-71
2022/06/07 11:17:06;;;;;;;;;;;23.20;55.30;;;;;;5092368;28;19908;-72
2022/06/07 11:19:32;;;;;;;;;;;23.10;55.00;;;;;;5091141;28;19939;-71
2022/06/07 11:22:01;;;;;;;;;;;23.10;55.10;;;;;;5092311;28;19995;-71
2022/06/07 11:24:29;;;;;;;;;;;23.20;55.20;;;;;;5092078;28;20377;-73
2022/06/07 11:26:55;;;;;;;;;;;23.40;55.50;;;;;;5092146;28;19912;-74
2022/06/07 11:29:32;;;;;;;;;;;23.50;54.80;;;;;;5091897;28;20345;-72
2022/06/07 11:31:59;;;;;;;;;;;23.50;54.50;;;;;;5092292;28;19908;-72
2022/06/07 11:34:26;;;;;;;;;;;23.60;54.60;;;;;;5092173;28;20383;-72
2022/06/07 11:37:15;;;;;;;;;;;23.60;54.50;;;;;;5092002;28;19982;-71
2022/06/07 11:39:40;;;;;;;;;;;23.60;54.20;;;;;;5078265;28;20325;-71
2022/06/07 11:42:12;;;;;;;;;;;23.60;54.00;;;;;;5095951;28;20003;-71
2022/06/07 11:44:58;;;;;;;;;;;23.70;54.20;;;;;;5091948;28;19919;-72
2022/06/07 11:47:25;;;;;;;;;;;23.70;54.30;;;;;;5091948;28;19915;-71
2022/06/07 11:49:51;;;;;;;;;;;23.70;53.60;;;;;;5091213;28;19937;-72
2022/06/07 11:52:22;;;;;;;;;;;23.80;53.30;;;;;;5092837;28;19908;-70
2022/06/07 11:55:04;;;;;;;;;;;23.80;53.50;;;;;;5091406;28;19955;-71
2022/06/07 11:57:32;;;;;;;;;;;23.90;54.40;;;;;;5075409;28;19916;-71
2022/06/07 12:00:16;;;;;;;;;;;24.00;54.50;;;;;;5075179;28;19908;-72
2022/06/07 12:03:04;;;;;;;;;;;24.10;53.80;;;;;;5076785;28;19908;-71
2022/06/07 12:05:31;;;;;;;;;;;24.20;52.00;;;;;;5091853;28;19913;-72
2022/06/07 12:08:02;;;;;;;;;;;24.00;53.00;;;;;;5092130;28;19931;-71
2022/06/07 12:10:27;;;;;;;;;;;23.90;51.20;;;;;;5092438;28;19908;-71
2022/06/07 12:13:01;;;;;;;;;;;23.90;53.70;;;;;;5075682;28;20442;-70
2022/06/07 12:15:37;;;;;;;;;;;23.80;54.00;;;;;;5075190;28;19997;-71
2022/06/07 12:18:05;;;;;;;;;;;23.70;53.50;;;;;;5075109;28;19909;-70
2022/06/07 12:20:37;;;;;;;;;;;23.60;54.00;;;;;;5074809;28;19909;-68
2022/06/07 12:23:10;;;;;;;;;;;23.60;54.80;;;;;;5074950;28;20341;-72
2022/06/07 12:25:35;;;;;;;;;;;23.70;54.80;;;;;;5074931;28;19950;-70
2022/06/07 12:28:03;;;;;;;;;;;23.70;53.60;;;;;;5090338;28;20374;-70
2022/06/07 12:30:31;;;;;;;;;;;23.60;54.50;;;;;;5094907;28;20279;-70
2022/06/07 12:33:11;;;;;;;;;;;23.70;54.90;;;;;;5082273;28;20311;-69
2022/06/07 12:35:49;;;;;;;;;;;23.70;55.00;;;;;;5073891;28;20395;-71
2022/06/07 12:38:16;;;;;;;;;;;23.80;54.80;;;;;;5073817;28;19913;-72
2022/06/07 12:40:44;;;;;;;;;;;23.80;54.50;;;;;;5090524;28;19916;-73
2022/06/07 12:43:24;;;;;;;;;;;23.90;54.50;;;;;;5094074;28;19961;-72
2022/06/07 12:45:58;;;;;;;;;;;23.90;54.50;;;;;;5074002;28;19912;-73
2022/06/07 12:48:24;;;;;;;;;;;23.90;54.70;;;;;;5089442;28;20360;-72
2022/06/07 12:50:50;;;;;;;;;;;23.90;53.90;;;;;;5092001;28;19912;-72
2022/06/07 12:53:23;;;;;;;;;;;23.90;54.10;;;;;;5093752;28;20021;-71
2022/06/07 12:55:54;;;;;;;;;;;23.90;54.40;;;;;;5094831;28;20371;-72
2022/06/07 12:58:22;;;;;;;;;;;23.80;55.00;;;;;;5087138;28;19919;-71
2022/06/07 13:00:48;;;;;;;;;;;23.80;54.80;;;;;;5094421;28;19915;-71
2022/06/07 13:03:20;;;;;;;;;;;23.80;54.70;;;;;;5092511;28;19915;-72
2022/06/07 13:05:46;;;;;;;;;;;23.80;55.40;;;;;;5086648;28;19917;-71
2022/06/07 13:08:16;;;;;;;;;;;23.70;54.70;;;;;;5074365;28;19916;-73
2022/06/07 13:10:43;;;;;;;;;;;23.70;54.20;;;;;;5089247;28;20041;-72
2022/06/07 13:13:16;;;;;;;;;;;23.60;54.90;;;;;;5093600;28;19908;-74
2022/06/07 13:15:54;;;;;;;;;;;23.50;54.80;;;;;;5074206;28;19916;-73
2022/06/07 13:18:26;;;;;;;;;;;23.30;54.30;;;;;;5076157;28;20014;-71
2022/06/07 13:21:04;;;;;;;;;;;23.10;54.40;;;;;;5074012;28;20003;-73
2022/06/07 13:23:32;;;;;;;;;;;23.00;56.50;;;;;;5084559;28;20288;-70
2022/06/07 13:26:18;;;;;;;;;;;22.60;58.50;;;;;;5080472;28;19923;-71
2022/06/07 13:28:44;;;;;;;;;;;22.30;59.10;;;;;;5094062;28;20308;-71
2022/06/07 13:31:45;;;;;;;;;;;22.10;60.00;;;;;;5094006;28;20403;-73
2022/06/07 13:34:22;;;;;;;;;;;21.70;62.60;;;;;;5035872;28;19909;-73
2022/06/07 13:37:11;;;;;;;;;;;21.80;64.20;;;;;;5085784;28;19908;-75
2022/06/07 13:39:40;;;;;;;;;;;21.60;71.30;;;;;;5077907;28;20357;-72
2022/06/07 13:42:19;;;;;;;;;;;21.10;76.20;;;;;;5091452;28;19920;-72
2022/06/07 13:44:53;;;;;;;;;;;21.10;77.50;;;;;;5092518;28;19921;-72
2022/06/07 13:47:25;;;;;;;;;;;21.20;79.70;;;;;;5092727;28;20045;-71
2022/06/07 13:53:35;;;;;;;;;;;21.60;79.50;;;;;;5094842;28;19914;-72
2022/06/07 13:55:55;;;;;;;;;;;21.60;80.30;;;;;;5089031;28;19990;-72
2022/06/07 13:58:22;;;;;;;;;;;22.10;71.20;;;;;;5093274;28;19908;-72
2022/06/07 14:00:49;;;;;;;;;;;22.50;69.80;;;;;;5089439;28;20379;-72
2022/06/07 14:03:28;;;;;;;;;;;22.70;68.50;;;;;;5094492;28;19951;-73
2022/06/07 14:05:54;;;;;;;;;;;23.00;75.00;;;;;;5094734;28;20038;-73
2022/06/07 14:08:21;;;;;;;;;;;23.10;73.90;;;;;;5093073;28;20384;-72
2022/06/07 14:10:47;;;;;;;;;;;23.10;73.70;;;;;;5093010;28;19915;-73
2022/06/07 14:13:13;;;;;;;;;;;23.10;73.40;;;;;;5093183;28;19909;-73
2022/06/07 14:15:40;;;;;;;;;;;23.10;72.90;;;;;;5093041;28;20412;-73
2022/06/07 14:18:08;;;;;;;;;;;23.10;73.20;;;;;;5093933;28;19915;-74
2022/06/07 14:20:35;;;;;;;;;;;23.20;74.00;;;;;;5092797;28;19908;-74
2022/06/07 14:23:01;;;;;;;;;;;23.30;73.90;;;;;;5093107;28;19908;-74
2022/06/07 14:25:28;;;;;;;;;;;23.30;73.80;;;;;;5092868;28;19912;-74
2022/06/07 14:27:54;;;;;;;;;;;23.30;74.00;;;;;;5093673;28;20026;-73
2022/06/07 14:30:20;;;;;;;;;;;23.30;74.00;;;;;;5072225;28;19955;-73
2022/06/07 14:32:53;;;;;;;;;;;23.40;72.50;;;;;;5079024;28;20444;-69
2022/06/07 14:35:25;;;;;;;;;;;23.40;72.40;;;;;;5091717;28;19912;-71
2022/06/07 14:37:51;;;;;;;;;;;23.50;72.40;;;;;;5091739;28;19912;-73
2022/06/07 14:40:18;;;;;;;;;;;23.50;71.70;;;;;;5091188;28;20275;-71
2022/06/07 14:42:45;;;;;;;;;;;23.50;71.10;;;;;;5093104;28;19916;-72
2022/06/07 14:45:15;;;;;;;;;;;23.50;71.40;;;;;;5092988;28;19993;-71
2022/06/07 14:47:42;;;;;;;;;;;23.40;71.40;;;;;;5091437;28;20045;-70
2022/06/07 14:50:12;;;;;;;;;;;23.50;72.40;;;;;;5091284;28;19955;-70
2022/06/07 14:52:38;;;;;;;;;;;23.40;71.90;;;;;;5092877;28;19912;-73